createdAt,value
2018-07-09T00:00:06.825Z,0.00
2018-07-09T00:01:06.981Z,0.00
2018-07-09T00:02:07.132Z,0.00
2018-07-09T00:03:07.285Z,0.00
2018-07-09T00:04:07.440Z,0.00
2018-07-09T00:05:07.596Z,0.00
2018-07-09T00:06:07.781Z,0.00
2018-07-09T00:07:07.904Z,0.00
2018-07-09T00:08:08.054Z,0.00
2018-07-09T00:09:08.208Z,0.00
2018-07-09T00:10:08.363Z,0.00
2018-07-09T00:11:08.514Z,0.00
2018-07-09T00:12:08.669Z,0.00
2018-07-09T00:13:08.823Z,0.00
2018-07-09T00:14:08.990Z,0.00
2018-07-09T00:15:09.139Z,0.00
2018-07-09T00:16:09.293Z,0.00
2018-07-09T00:17:09.449Z,0.00
2018-07-09T00:18:09.602Z,0.00
2018-07-09T00:19:09.757Z,0.00
2018-07-09T00:20:09.906Z,0.00
2018-07-09T00:21:10.063Z,0.00
2018-07-09T00:22:10.216Z,0.00
2018-07-09T00:23:10.371Z,0.00
2018-07-09T00:24:10.525Z,0.00
2018-07-09T00:25:10.678Z,0.00
2018-07-09T00:26:10.831Z,0.00
2018-07-09T00:27:10.986Z,0.00
2018-07-09T00:28:11.138Z,0.00
2018-07-09T00:29:11.294Z,0.00
2018-07-09T00:30:11.445Z,0.00
2018-07-09T00:31:11.599Z,0.00
2018-07-09T00:32:11.800Z,0.00
2018-07-09T00:33:11.907Z,0.00
2018-07-09T00:34:12.061Z,0.00
2018-07-09T00:35:12.215Z,0.00
2018-07-09T00:36:12.369Z,0.00
2018-07-09T00:37:12.521Z,0.00
2018-07-09T00:38:12.674Z,0.00
2018-07-09T00:39:12.828Z,0.00
2018-07-09T00:40:12.985Z,0.00
2018-07-09T00:41:13.135Z,0.00
2018-07-09T00:42:13.287Z,0.00
2018-07-09T00:43:13.442Z,0.00
2018-07-09T00:44:13.596Z,0.00
2018-07-09T00:45:13.753Z,0.00
2018-07-09T00:46:13.903Z,0.00
2018-07-09T00:47:14.064Z,0.00
2018-07-09T00:48:14.212Z,0.00
2018-07-09T00:49:14.366Z,0.00
2018-07-09T00:50:14.520Z,0.00
2018-07-09T00:51:14.678Z,0.00
2018-07-09T00:52:14.828Z,0.00
2018-07-09T00:53:14.979Z,0.00
2018-07-09T00:54:15.135Z,0.00
2018-07-09T00:55:15.286Z,0.00
2018-07-09T00:56:15.440Z,0.00
2018-07-09T00:57:15.596Z,0.00
2018-07-09T00:58:15.745Z,0.00
2018-07-09T00:59:15.900Z,0.00
2018-07-09T01:00:16.053Z,0.00
2018-07-09T01:01:16.205Z,0.00
2018-07-09T01:02:16.357Z,0.00
2018-07-09T01:03:16.518Z,0.00
2018-07-09T01:04:16.666Z,0.00
2018-07-09T01:05:16.817Z,0.00
2018-07-09T01:06:16.973Z,0.00
2018-07-09T01:07:17.127Z,0.00
2018-07-09T01:08:17.280Z,0.00
2018-07-09T01:09:17.428Z,0.00
2018-07-09T01:10:17.587Z,0.00
2018-07-09T01:11:17.742Z,0.00
2018-07-09T01:12:17.888Z,0.00
2018-07-09T01:13:18.048Z,0.00
2018-07-09T01:14:18.196Z,0.00
2018-07-09T01:15:18.349Z,0.00
2018-07-09T01:16:18.501Z,0.00
2018-07-09T01:17:18.652Z,0.00
2018-07-09T01:18:18.808Z,0.00
2018-07-09T01:19:18.960Z,0.00
2018-07-09T01:20:19.167Z,0.00
2018-07-09T01:21:19.269Z,0.00
2018-07-09T01:22:19.420Z,0.00
2018-07-09T01:23:19.575Z,0.00
2018-07-09T01:24:19.727Z,0.00
2018-07-09T01:25:19.886Z,0.00
2018-07-09T01:26:20.039Z,0.00
2018-07-09T01:27:20.192Z,0.00
2018-07-09T01:28:20.348Z,0.00
2018-07-09T01:29:20.493Z,0.00
2018-07-09T01:30:20.647Z,0.00
2018-07-09T01:31:20.802Z,0.00
2018-07-09T01:32:20.955Z,0.00
2018-07-09T01:33:21.108Z,0.00
2018-07-09T01:34:21.262Z,0.00
2018-07-09T01:35:21.415Z,0.00
2018-07-09T01:36:21.567Z,0.00
2018-07-09T01:37:21.720Z,0.00
2018-07-09T01:38:21.873Z,0.00
2018-07-09T01:39:22.028Z,0.00
2018-07-09T01:40:22.178Z,0.00
2018-07-09T01:41:22.333Z,0.00
2018-07-09T01:42:22.484Z,0.00
2018-07-09T01:43:22.640Z,0.00
2018-07-09T01:44:22.792Z,0.00
2018-07-09T01:45:22.945Z,0.00
2018-07-09T01:46:23.099Z,0.00
2018-07-09T01:47:23.252Z,0.00
2018-07-09T01:48:23.402Z,0.00
2018-07-09T01:49:23.557Z,0.00
2018-07-09T01:50:23.709Z,0.00
2018-07-09T01:51:23.863Z,0.00
2018-07-09T01:52:24.017Z,0.00
2018-07-09T01:53:24.177Z,0.00
2018-07-09T01:54:24.323Z,0.00
2018-07-09T01:55:24.474Z,0.00
2018-07-09T01:56:24.629Z,0.00
2018-07-09T01:57:24.781Z,0.00
2018-07-09T01:58:24.932Z,0.00
2018-07-09T01:59:25.086Z,0.00
2018-07-09T02:00:25.240Z,0.00
2018-07-09T02:01:25.393Z,0.00
2018-07-09T02:02:25.548Z,0.00
2018-07-09T02:03:25.700Z,0.00
2018-07-09T02:04:25.854Z,0.00
2018-07-09T02:05:26.007Z,0.00
2018-07-09T02:06:26.163Z,0.00
2018-07-09T02:07:26.315Z,0.00
2018-07-09T02:08:26.470Z,0.00
2018-07-09T02:09:26.625Z,0.00
2018-07-09T02:10:26.779Z,0.00
2018-07-09T02:11:26.934Z,0.00
2018-07-09T02:12:27.087Z,0.00
2018-07-09T02:13:27.239Z,0.00
2018-07-09T02:14:27.392Z,0.00
2018-07-09T02:15:27.546Z,0.00
2018-07-09T02:16:27.697Z,0.00
2018-07-09T02:17:27.880Z,0.00
2018-07-09T02:18:28.035Z,0.00
2018-07-09T02:19:28.183Z,0.00
2018-07-09T02:20:28.367Z,0.00
2018-07-09T02:21:28.491Z,0.00
2018-07-09T02:22:28.643Z,0.00
2018-07-09T02:23:28.796Z,0.00
2018-07-09T02:24:28.948Z,0.00
2018-07-09T02:25:29.100Z,0.00
2018-07-09T02:26:29.255Z,0.00
2018-07-09T02:27:29.409Z,4.00
2018-07-09T02:28:29.562Z,4.00
2018-07-09T02:29:29.715Z,4.00
2018-07-09T02:30:29.870Z,4.00
2018-07-09T02:31:30.023Z,0.00
2018-07-09T02:32:30.176Z,0.00
2018-07-09T02:33:30.328Z,4.00
2018-07-09T02:34:30.481Z,4.00
2018-07-09T02:35:30.639Z,4.00
2018-07-09T02:36:30.785Z,4.00
2018-07-09T02:37:30.940Z,4.00
2018-07-09T02:38:31.091Z,8.00
2018-07-09T02:39:31.244Z,4.00
2018-07-09T02:40:31.398Z,8.00
2018-07-09T02:41:31.552Z,8.00
2018-07-09T02:42:31.707Z,8.00
2018-07-09T02:43:31.855Z,8.00
2018-07-09T02:44:32.011Z,12.00
2018-07-09T02:45:32.163Z,12.00
2018-07-09T02:46:32.318Z,16.00
2018-07-09T02:47:32.471Z,16.00
2018-07-09T02:48:32.620Z,20.00
2018-07-09T02:49:32.774Z,24.00
2018-07-09T02:50:32.927Z,24.00
2018-07-09T02:51:33.078Z,24.00
2018-07-09T02:52:33.233Z,32.00
2018-07-09T02:53:33.386Z,36.00
2018-07-09T02:54:33.543Z,36.00
2018-07-09T02:55:33.695Z,40.00
2018-07-09T02:56:33.863Z,48.00
2018-07-09T02:57:33.999Z,56.00
2018-07-09T02:58:34.157Z,60.00
2018-07-09T02:59:34.305Z,68.00
2018-07-09T03:00:34.458Z,72.00
2018-07-09T03:01:34.613Z,84.00
2018-07-09T03:02:34.763Z,92.00
2018-07-09T03:03:34.920Z,100.00
2018-07-09T03:04:35.075Z,112.00
2018-07-09T03:05:35.228Z,124.00
2018-07-09T03:06:35.382Z,136.00
2018-07-09T03:07:35.532Z,148.00
2018-07-09T03:08:35.684Z,164.00
2018-07-09T03:09:35.839Z,176.00
2018-07-09T03:10:35.991Z,192.00
2018-07-09T03:11:36.146Z,208.00
2018-07-09T03:12:36.301Z,224.00
2018-07-09T03:13:36.449Z,244.00
2018-07-09T03:14:36.605Z,260.00
2018-07-09T03:15:36.759Z,280.00
2018-07-09T03:16:36.910Z,304.00
2018-07-09T03:17:37.063Z,328.00
2018-07-09T03:18:37.214Z,352.00
2018-07-09T03:19:37.367Z,376.00
2018-07-09T03:20:37.519Z,404.00
2018-07-09T03:21:37.672Z,428.00
2018-07-09T03:22:37.822Z,456.00
2018-07-09T03:23:37.975Z,484.00
2018-07-09T03:24:38.130Z,516.00
2018-07-09T03:25:38.282Z,548.00
2018-07-09T03:26:38.432Z,580.00
2018-07-09T03:27:38.588Z,612.00
2018-07-09T03:28:38.737Z,652.00
2018-07-09T03:29:38.933Z,692.00
2018-07-09T03:30:39.045Z,728.00
2018-07-09T03:31:39.195Z,768.00
2018-07-09T03:32:39.347Z,804.00
2018-07-09T03:33:39.532Z,844.00
2018-07-09T03:34:39.654Z,888.00
2018-07-09T03:35:39.808Z,928.00
2018-07-09T03:36:39.958Z,972.00
2018-07-09T03:37:40.110Z,1020.00
2018-07-09T03:38:40.263Z,1068.00
2018-07-09T03:39:40.417Z,1112.00
2018-07-09T03:40:40.570Z,1160.00
2018-07-09T03:41:40.721Z,1208.00
2018-07-09T03:42:40.876Z,1248.00
2018-07-09T03:43:41.026Z,1276.00
2018-07-09T03:44:41.179Z,1300.00
2018-07-09T03:45:41.330Z,1332.00
2018-07-09T03:46:41.491Z,1380.00
2018-07-09T03:47:41.636Z,1444.00
2018-07-09T03:48:41.787Z,1528.00
2018-07-09T03:49:41.943Z,1616.00
2018-07-09T03:50:42.095Z,1688.00
2018-07-09T03:51:42.248Z,1740.00
2018-07-09T03:52:42.401Z,1792.00
2018-07-09T03:53:42.555Z,1844.00
2018-07-09T03:54:42.705Z,1896.00
2018-07-09T03:55:42.859Z,1948.00
2018-07-09T03:56:43.013Z,2000.00
2018-07-09T03:57:43.166Z,2056.00
2018-07-09T03:58:43.320Z,2112.00
2018-07-09T03:59:43.471Z,2168.00
2018-07-09T04:00:43.626Z,2228.00
2018-07-09T04:01:43.774Z,2284.00
2018-07-09T04:02:43.925Z,2344.00
2018-07-09T04:03:44.082Z,2404.00
2018-07-09T04:04:44.232Z,2464.00
2018-07-09T04:05:44.384Z,2524.00
2018-07-09T04:06:44.536Z,2580.00
2018-07-09T04:07:44.687Z,2636.00
2018-07-09T04:08:44.839Z,2696.00
2018-07-09T04:09:44.995Z,2748.00
2018-07-09T04:10:45.145Z,2804.00
2018-07-09T04:11:45.300Z,2852.00
2018-07-09T04:12:45.456Z,2892.00
2018-07-09T04:13:45.604Z,2932.00
2018-07-09T04:14:45.761Z,2960.00
2018-07-09T04:15:45.912Z,2988.00
2018-07-09T04:16:46.063Z,3004.00
2018-07-09T04:17:46.214Z,3012.00
2018-07-09T04:18:46.368Z,3004.00
2018-07-09T04:19:46.521Z,2988.00
2018-07-09T04:20:46.681Z,2980.00
2018-07-09T04:21:46.831Z,2960.00
2018-07-09T04:22:46.981Z,2952.00
2018-07-09T04:23:47.132Z,2940.00
2018-07-09T04:24:47.285Z,2876.00
2018-07-09T04:25:47.440Z,2812.00
2018-07-09T04:26:47.609Z,2788.00
2018-07-09T04:27:47.735Z,2792.00
2018-07-09T04:28:47.887Z,2780.00
2018-07-09T04:29:48.039Z,2784.00
2018-07-09T04:30:48.192Z,2792.00
2018-07-09T04:31:48.401Z,2792.00
2018-07-09T04:32:48.497Z,2852.00
2018-07-09T04:33:48.650Z,2896.00
2018-07-09T04:34:48.803Z,2928.00
2018-07-09T04:35:48.955Z,3024.00
2018-07-09T04:36:49.109Z,3128.00
2018-07-09T04:37:49.331Z,3164.00
2018-07-09T04:38:49.413Z,3176.00
2018-07-09T04:39:49.567Z,3136.00
2018-07-09T04:40:49.720Z,3144.00
2018-07-09T04:41:49.876Z,3092.00
2018-07-09T04:42:50.032Z,3056.00
2018-07-09T04:43:50.184Z,3096.00
2018-07-09T04:44:50.337Z,3144.00
2018-07-09T04:45:50.489Z,3228.00
2018-07-09T04:46:50.644Z,3356.00
2018-07-09T04:47:50.796Z,3444.00
2018-07-09T04:48:50.949Z,3592.00
2018-07-09T04:49:51.110Z,3696.00
2018-07-09T04:50:51.258Z,3720.00
2018-07-09T04:51:51.412Z,3692.00
2018-07-09T04:52:51.567Z,3676.00
2018-07-09T04:53:51.719Z,3844.00
2018-07-09T04:54:51.872Z,3912.00
2018-07-09T04:55:52.027Z,4136.00
2018-07-09T04:56:52.186Z,4324.00
2018-07-09T04:57:52.337Z,4328.00
2018-07-09T04:58:52.488Z,4384.00
2018-07-09T04:59:52.641Z,4524.00
2018-07-09T05:00:52.794Z,4716.00
2018-07-09T05:01:52.946Z,4816.00
2018-07-09T05:02:53.097Z,4848.00
2018-07-09T05:03:53.252Z,4864.00
2018-07-09T05:04:53.407Z,4876.00
2018-07-09T05:05:53.561Z,4888.00
2018-07-09T05:06:53.713Z,4896.00
2018-07-09T05:07:53.880Z,4888.00
2018-07-09T05:08:54.024Z,4852.00
2018-07-09T05:09:54.175Z,4776.00
2018-07-09T05:10:54.332Z,4700.00
2018-07-09T05:11:54.481Z,4728.00
2018-07-09T05:12:54.637Z,4620.00
2018-07-09T05:13:54.787Z,4612.00
2018-07-09T05:14:54.942Z,4824.00
2018-07-09T05:15:55.094Z,4812.00
2018-07-09T05:16:55.250Z,4804.00
2018-07-09T05:17:55.400Z,4744.00
2018-07-09T05:18:55.554Z,4720.00
2018-07-09T05:19:55.709Z,4752.00
2018-07-09T05:20:55.865Z,4772.00
2018-07-09T05:21:56.016Z,4784.00
2018-07-09T05:22:56.169Z,4760.00
2018-07-09T05:23:56.329Z,4748.00
2018-07-09T05:24:56.479Z,4700.00
2018-07-09T05:25:56.631Z,4680.00
2018-07-09T05:26:56.785Z,4632.00
2018-07-09T05:27:56.943Z,4568.00
2018-07-09T05:28:57.092Z,4348.00
2018-07-09T05:29:57.247Z,4520.00
2018-07-09T05:30:57.402Z,4608.00
2018-07-09T05:31:57.553Z,4572.00
2018-07-09T05:32:57.718Z,4504.00
2018-07-09T05:33:57.861Z,4424.00
2018-07-09T05:34:58.017Z,4472.00
2018-07-09T05:35:58.170Z,4400.00
2018-07-09T05:36:58.321Z,4360.00
2018-07-09T05:37:58.478Z,4264.00
2018-07-09T05:38:58.637Z,4456.00
2018-07-09T05:39:58.822Z,4564.00
2018-07-09T05:40:58.943Z,4556.00
2018-07-09T05:41:59.098Z,4616.00
2018-07-09T05:42:59.251Z,4600.00
2018-07-09T05:43:59.407Z,4584.00
2018-07-09T05:44:59.561Z,4780.00
2018-07-09T05:45:59.715Z,4864.00
2018-07-09T05:46:59.885Z,5084.00
2018-07-09T05:48:00.024Z,5204.00
2018-07-09T05:49:00.175Z,5288.00
2018-07-09T05:50:00.332Z,5356.00
2018-07-09T05:51:00.485Z,5412.00
2018-07-09T05:52:00.643Z,5484.00
2018-07-09T05:53:00.795Z,5548.00
2018-07-09T05:54:00.951Z,5608.00
2018-07-09T05:55:01.104Z,5676.00
2018-07-09T05:56:01.262Z,5732.00
2018-07-09T05:57:01.413Z,5800.00
2018-07-09T05:58:01.568Z,5876.00
2018-07-09T05:59:01.852Z,5960.00
2018-07-09T06:00:01.880Z,6044.00
2018-07-09T06:01:02.036Z,6136.00
2018-07-09T06:02:02.192Z,6232.00
2018-07-09T06:03:02.343Z,6328.00
2018-07-09T06:04:02.501Z,6428.00
2018-07-09T06:05:02.658Z,6528.00
2018-07-09T06:06:02.813Z,6624.00
2018-07-09T06:07:02.967Z,6720.00
2018-07-09T06:08:03.123Z,6836.00
2018-07-09T06:09:03.281Z,6956.00
2018-07-09T06:10:03.436Z,7068.00
2018-07-09T06:11:03.600Z,7180.00
2018-07-09T06:12:03.747Z,7264.00
2018-07-09T06:13:03.904Z,7344.00
2018-07-09T06:14:04.059Z,7400.00
2018-07-09T06:15:04.215Z,7460.00
2018-07-09T06:16:04.374Z,7536.00
2018-07-09T06:17:04.526Z,7608.00
2018-07-09T06:18:04.680Z,7680.00
2018-07-09T06:19:04.837Z,7760.00
2018-07-09T06:20:04.993Z,7824.00
2018-07-09T06:21:05.148Z,7876.00
2018-07-09T06:22:05.305Z,7912.00
2018-07-09T06:23:05.461Z,7908.00
2018-07-09T06:24:05.614Z,7888.00
2018-07-09T06:25:05.770Z,7840.00
2018-07-09T06:26:05.929Z,7776.00
2018-07-09T06:27:06.082Z,7684.00
2018-07-09T06:28:06.238Z,7544.00
2018-07-09T06:29:06.394Z,7352.00
2018-07-09T06:30:06.553Z,7128.00
2018-07-09T06:31:06.708Z,6860.00
2018-07-09T06:32:06.863Z,6428.00
2018-07-09T06:33:07.019Z,6056.00
2018-07-09T06:34:07.175Z,5980.00
2018-07-09T06:35:07.331Z,5848.00
2018-07-09T06:36:07.486Z,5788.00
2018-07-09T06:37:07.643Z,5512.00
2018-07-09T06:38:07.799Z,5576.00
2018-07-09T06:39:07.953Z,5396.00
2018-07-09T06:40:08.111Z,5284.00
2018-07-09T06:41:08.266Z,4944.00
2018-07-09T06:42:08.422Z,4508.00
2018-07-09T06:43:08.581Z,4268.00
2018-07-09T06:44:08.738Z,3988.00
2018-07-09T06:45:08.895Z,3704.00
2018-07-09T06:46:09.051Z,3560.00
2018-07-09T06:47:09.206Z,3472.00
2018-07-09T06:48:09.364Z,3340.00
2018-07-09T06:49:09.517Z,3332.00
2018-07-09T06:50:09.710Z,3332.00
2018-07-09T06:51:09.829Z,3416.00
2018-07-09T06:52:09.994Z,3672.00
2018-07-09T06:53:10.143Z,3916.00
2018-07-09T06:54:10.301Z,4580.00
2018-07-09T06:55:10.453Z,4504.00
2018-07-09T06:56:10.610Z,4488.00
2018-07-09T06:57:10.770Z,4300.00
2018-07-09T06:58:10.921Z,4056.00
2018-07-09T06:59:11.078Z,3668.00
2018-07-09T07:00:11.235Z,3232.00
2018-07-09T07:01:11.389Z,3304.00
2018-07-09T07:02:11.578Z,4148.00
2018-07-09T07:03:11.700Z,4636.00
2018-07-09T07:04:11.855Z,4640.00
2018-07-09T07:05:12.012Z,4652.00
2018-07-09T07:06:12.166Z,4636.00
2018-07-09T07:07:12.319Z,4648.00
2018-07-09T07:08:12.476Z,4632.00
2018-07-09T07:09:12.728Z,4624.00
2018-07-09T07:10:12.790Z,4616.00
2018-07-09T07:11:12.941Z,4604.00
2018-07-09T07:12:13.094Z,4588.00
2018-07-09T07:13:13.250Z,4588.00
2018-07-09T07:14:13.454Z,4592.00
2018-07-09T07:15:13.557Z,4576.00
2018-07-09T07:16:13.712Z,4580.00
2018-07-09T07:17:13.871Z,4572.00
2018-07-09T07:18:14.027Z,4576.00
2018-07-09T07:19:14.184Z,4564.00
2018-07-09T07:20:14.340Z,4556.00
2018-07-09T07:21:14.496Z,4548.00
2018-07-09T07:22:14.653Z,4544.00
2018-07-09T07:23:14.805Z,4532.00
2018-07-09T07:24:14.961Z,4544.00
2018-07-09T07:25:15.117Z,4540.00
2018-07-09T07:26:15.273Z,4532.00
2018-07-09T07:27:15.427Z,4536.00
2018-07-09T07:28:15.588Z,4528.00
2018-07-09T07:29:15.739Z,4528.00
2018-07-09T07:30:15.895Z,4524.00
2018-07-09T07:31:16.048Z,4516.00
2018-07-09T07:32:16.205Z,4512.00
2018-07-09T07:33:16.415Z,4512.00
2018-07-09T07:34:16.516Z,4516.00
2018-07-09T07:35:16.672Z,4516.00
2018-07-09T07:36:16.826Z,4512.00
2018-07-09T07:37:16.985Z,4512.00
2018-07-09T07:38:17.137Z,4500.00
2018-07-09T07:39:17.314Z,4512.00
2018-07-09T07:40:17.453Z,4512.00
2018-07-09T07:41:17.610Z,4508.00
2018-07-09T07:42:17.766Z,4504.00
2018-07-09T07:43:17.923Z,4496.00
2018-07-09T07:44:18.076Z,4504.00
2018-07-09T07:45:18.232Z,4516.00
2018-07-09T07:46:18.389Z,4512.00
2018-07-09T07:47:18.545Z,4516.00
2018-07-09T07:48:18.702Z,4528.00
2018-07-09T07:49:18.857Z,4524.00
2018-07-09T07:50:19.076Z,4524.00
2018-07-09T07:51:19.172Z,4524.00
2018-07-09T07:52:19.330Z,4528.00
2018-07-09T07:53:19.482Z,4528.00
2018-07-09T07:54:19.640Z,4528.00
2018-07-09T07:55:19.795Z,4528.00
2018-07-09T07:56:19.953Z,4532.00
2018-07-09T07:57:20.111Z,4536.00
2018-07-09T07:58:20.264Z,4536.00
2018-07-09T07:59:20.420Z,4540.00
2018-07-09T08:00:20.576Z,4544.00
2018-07-09T08:01:20.733Z,4552.00
2018-07-09T08:02:20.890Z,4548.00
2018-07-09T08:03:21.047Z,4556.00
2018-07-09T08:04:21.204Z,4560.00
2018-07-09T08:05:21.361Z,4552.00
2018-07-09T08:06:21.517Z,4552.00
2018-07-09T08:07:21.672Z,4548.00
2018-07-09T08:08:21.830Z,4548.00
2018-07-09T08:09:22.010Z,4556.00
2018-07-09T08:10:22.142Z,4560.00
2018-07-09T08:11:47.688Z,4552.00
2018-07-09T08:13:29.425Z,4544.00
2018-07-09T08:14:22.765Z,4556.00
2018-07-09T08:15:22.922Z,4552.00
2018-07-09T08:16:23.086Z,4572.00
2018-07-09T08:17:23.235Z,4572.00
2018-07-09T08:18:23.388Z,4572.00
2018-07-09T08:19:23.546Z,4572.00
2018-07-09T08:20:23.703Z,4572.00
2018-07-09T08:21:23.861Z,4580.00
2018-07-09T08:22:24.018Z,4592.00
2018-07-09T08:23:24.173Z,4592.00
2018-07-09T08:24:24.357Z,4600.00
2018-07-09T08:25:24.490Z,4616.00
2018-07-09T08:26:24.644Z,4624.00
2018-07-09T08:27:24.801Z,4624.00
2018-07-09T08:28:24.960Z,4636.00
2018-07-09T08:29:25.115Z,4628.00
2018-07-09T08:30:25.274Z,4644.00
2018-07-09T08:31:25.467Z,4652.00
2018-07-09T08:32:25.585Z,4660.00
2018-07-09T08:33:25.762Z,4656.00
2018-07-09T08:34:25.903Z,4648.00
2018-07-09T08:35:26.057Z,4648.00
2018-07-09T08:36:26.214Z,4652.00
2018-07-09T08:37:26.372Z,4648.00
2018-07-09T08:38:26.531Z,4656.00
2018-07-09T08:39:26.688Z,4668.00
2018-07-09T08:40:26.846Z,4672.00
2018-07-09T08:41:27.001Z,4660.00
2018-07-09T08:42:27.156Z,4676.00
2018-07-09T08:43:27.314Z,4680.00
2018-07-09T08:44:27.472Z,4684.00
2018-07-09T08:45:27.629Z,4668.00
2018-07-09T08:46:27.790Z,4672.00
2018-07-09T08:47:28.005Z,4676.00
2018-07-09T08:48:28.132Z,4684.00
2018-07-09T08:49:28.289Z,4696.00
2018-07-09T08:50:28.446Z,4692.00
2018-07-09T08:51:28.602Z,4692.00
2018-07-09T08:52:28.760Z,4700.00
2018-07-09T08:53:28.915Z,4704.00
2018-07-09T08:54:29.077Z,4720.00
2018-07-09T08:55:29.234Z,4728.00
2018-07-09T08:56:29.389Z,4736.00
2018-07-09T08:57:29.547Z,4740.00
2018-07-09T08:58:29.703Z,4744.00
2018-07-09T08:59:29.862Z,4736.00
2018-07-09T09:00:30.021Z,4736.00
2018-07-09T09:01:30.177Z,4736.00
2018-07-09T09:02:30.331Z,4744.00
2018-07-09T09:03:30.488Z,4740.00
2018-07-09T09:04:30.646Z,4732.00
2018-07-09T09:05:30.805Z,4740.00
2018-07-09T09:06:30.963Z,4736.00
2018-07-09T09:07:31.122Z,4748.00
2018-07-09T09:08:31.278Z,4752.00
2018-07-09T09:09:31.437Z,4760.00
2018-07-09T09:10:31.596Z,4772.00
2018-07-09T09:11:31.751Z,4772.00
2018-07-09T09:12:31.910Z,4780.00
2018-07-09T09:13:32.072Z,4780.00
2018-07-09T09:14:32.226Z,4788.00
2018-07-09T09:15:32.386Z,4796.00
2018-07-09T09:16:32.601Z,4800.00
2018-07-09T09:17:32.707Z,4808.00
2018-07-09T09:18:32.861Z,4812.00
2018-07-09T09:19:33.017Z,4816.00
2018-07-09T09:20:33.176Z,4828.00
2018-07-09T09:21:33.335Z,4832.00
2018-07-09T09:22:33.494Z,4828.00
2018-07-09T09:23:33.651Z,4836.00
2018-07-09T09:24:33.813Z,4840.00
2018-07-09T09:25:34.007Z,4836.00
2018-07-09T09:26:34.129Z,4844.00
2018-07-09T09:27:34.287Z,4844.00
2018-07-09T09:28:34.448Z,4852.00
2018-07-09T09:29:34.605Z,4844.00
2018-07-09T09:30:34.763Z,4848.00
2018-07-09T09:31:35.007Z,4852.00
2018-07-09T09:32:35.081Z,4852.00
2018-07-09T09:33:35.243Z,4844.00
2018-07-09T09:34:35.397Z,4836.00
2018-07-09T09:35:35.562Z,4844.00
2018-07-09T09:36:35.725Z,4840.00
2018-07-09T09:37:35.948Z,4840.00
2018-07-09T09:38:36.039Z,4836.00
2018-07-09T09:39:36.196Z,4844.00
2018-07-09T09:40:36.353Z,4844.00
2018-07-09T09:41:36.512Z,4848.00
2018-07-09T09:42:36.671Z,4844.00
2018-07-09T09:43:36.828Z,4844.00
2018-07-09T09:44:36.986Z,4848.00
2018-07-09T09:45:37.146Z,4840.00
2018-07-09T09:46:37.303Z,4840.00
2018-07-09T09:47:37.462Z,4840.00
2018-07-09T09:48:37.621Z,4836.00
2018-07-09T09:49:37.778Z,4848.00
2018-07-09T09:50:37.944Z,4856.00
2018-07-09T09:51:38.102Z,4860.00
2018-07-09T09:52:38.258Z,4868.00
2018-07-09T09:53:38.459Z,4868.00
2018-07-09T09:54:38.623Z,4876.00
2018-07-09T09:55:38.778Z,4880.00
2018-07-09T09:56:38.936Z,4880.00
2018-07-09T09:57:39.099Z,4884.00
2018-07-09T09:58:39.252Z,4900.00
2018-07-09T09:59:39.411Z,4900.00
2018-07-09T10:00:39.580Z,4916.00
2018-07-09T10:01:39.729Z,4920.00
2018-07-09T10:02:39.889Z,4916.00
2018-07-09T10:03:40.049Z,4904.00
2018-07-09T10:04:40.206Z,4908.00
2018-07-09T10:05:40.368Z,4920.00
2018-07-09T10:06:40.524Z,4924.00
2018-07-09T10:07:40.686Z,4924.00
2018-07-09T10:08:40.861Z,4924.00
2018-07-09T10:09:41.005Z,4928.00
2018-07-09T10:10:41.156Z,4940.00
2018-07-09T10:11:41.315Z,4948.00
2018-07-09T10:12:41.474Z,4960.00
2018-07-09T10:13:41.632Z,4976.00
2018-07-09T10:14:41.791Z,4988.00
2018-07-09T10:15:41.965Z,4992.00
2018-07-09T10:16:42.110Z,4996.00
2018-07-09T10:17:42.270Z,5004.00
2018-07-09T10:18:42.429Z,5004.00
2018-07-09T10:19:42.588Z,5004.00
2018-07-09T10:20:42.746Z,5016.00
2018-07-09T10:21:42.905Z,5016.00
2018-07-09T10:22:43.119Z,5020.00
2018-07-09T10:23:43.222Z,5012.00
2018-07-09T10:24:43.380Z,5032.00
2018-07-09T10:25:43.543Z,5028.00
2018-07-09T10:26:43.701Z,5052.00
2018-07-09T10:27:43.860Z,5056.00
2018-07-09T10:28:44.020Z,5072.00
2018-07-09T10:29:44.179Z,5088.00
2018-07-09T10:30:44.344Z,5096.00
2018-07-09T10:31:44.498Z,5100.00
2018-07-09T10:32:44.656Z,5116.00
2018-07-09T10:33:44.810Z,5112.00
2018-07-09T10:34:44.972Z,5116.00
2018-07-09T10:35:45.130Z,5136.00
2018-07-09T10:36:45.288Z,5144.00
2018-07-09T10:37:45.449Z,5156.00
2018-07-09T10:38:45.614Z,5168.00
2018-07-09T10:39:45.765Z,5180.00
2018-07-09T10:40:45.928Z,5184.00
2018-07-09T10:41:46.090Z,5192.00
2018-07-09T10:42:46.251Z,5204.00
2018-07-09T10:43:46.412Z,5224.00
2018-07-09T10:44:46.570Z,5232.00
2018-07-09T10:45:46.730Z,5244.00
2018-07-09T10:46:46.891Z,5260.00
2018-07-09T10:47:47.052Z,5280.00
2018-07-09T10:48:47.212Z,5284.00
2018-07-09T10:49:47.372Z,5316.00
2018-07-09T10:50:47.533Z,5340.00
2018-07-09T10:51:47.692Z,5368.00
2018-07-09T10:52:47.852Z,5396.00
2018-07-09T10:53:48.012Z,5448.00
2018-07-09T10:54:48.174Z,5476.00
2018-07-09T10:55:48.334Z,5496.00
2018-07-09T10:56:48.494Z,5532.00
2018-07-09T10:57:48.656Z,5564.00
2018-07-09T10:58:48.817Z,5588.00
2018-07-09T10:59:48.976Z,5568.00
2018-07-09T11:00:49.150Z,5560.00
2018-07-09T11:01:49.298Z,5552.00
2018-07-09T11:02:49.460Z,5544.00
2018-07-09T11:03:49.621Z,5548.00
2018-07-09T11:04:49.782Z,5512.00
2018-07-09T11:05:49.945Z,5484.00
2018-07-09T11:06:50.106Z,5492.00
2018-07-09T11:07:50.268Z,5320.00
2018-07-09T11:08:50.425Z,5332.00
2018-07-09T11:09:50.588Z,5464.00
2018-07-09T11:10:50.749Z,5492.00
2018-07-09T11:11:50.910Z,5512.00
2018-07-09T11:12:51.074Z,5496.00
2018-07-09T11:13:51.231Z,5524.00
2018-07-09T11:14:51.393Z,5508.00
2018-07-09T11:15:51.552Z,5568.00
2018-07-09T11:16:51.711Z,5608.00
2018-07-09T11:17:51.874Z,5640.00
2018-07-09T11:18:52.034Z,5684.00
2018-07-09T11:19:52.192Z,5728.00
2018-07-09T11:20:52.353Z,5756.00
2018-07-09T11:21:52.517Z,5768.00
2018-07-09T11:22:52.674Z,5812.00
2018-07-09T11:23:52.835Z,5824.00
2018-07-09T11:24:52.998Z,5892.00
2018-07-09T11:25:53.155Z,5944.00
2018-07-09T11:26:53.318Z,5928.00
2018-07-09T11:27:53.478Z,6060.00
2018-07-09T11:28:53.637Z,6068.00
2018-07-09T11:29:53.800Z,6080.00
2018-07-09T11:30:53.958Z,6160.00
2018-07-09T11:31:54.118Z,6188.00
2018-07-09T11:32:54.276Z,6160.00
2018-07-09T11:33:54.469Z,6212.00
2018-07-09T11:34:54.597Z,6232.00
2018-07-09T11:35:54.772Z,6092.00
2018-07-09T11:36:54.920Z,6272.00
2018-07-09T11:37:55.079Z,6324.00
2018-07-09T11:38:55.238Z,6384.00
2018-07-09T11:39:55.399Z,6436.00
2018-07-09T11:40:55.562Z,6460.00
2018-07-09T11:41:55.722Z,6532.00
2018-07-09T11:42:55.884Z,6604.00
2018-07-09T11:43:56.042Z,6672.00
2018-07-09T11:44:56.211Z,6740.00
2018-07-09T11:45:56.366Z,6852.00
2018-07-09T11:46:56.524Z,6936.00
2018-07-09T11:47:56.688Z,6860.00
2018-07-09T11:48:56.851Z,7100.00
2018-07-09T11:49:57.005Z,7208.00
2018-07-09T11:50:57.169Z,7232.00
2018-07-09T11:51:57.328Z,7348.00
2018-07-09T11:52:57.490Z,7460.00
2018-07-09T11:53:57.647Z,7492.00
2018-07-09T11:54:57.809Z,7540.00
2018-07-09T11:55:57.979Z,7580.00
2018-07-09T11:56:58.127Z,7528.00
2018-07-09T11:57:58.289Z,7364.00
2018-07-09T11:58:58.512Z,7360.00
2018-07-09T11:59:58.610Z,7328.00
2018-07-09T12:00:58.771Z,7248.00
2018-07-09T12:01:59.016Z,6624.00
2018-07-09T12:02:59.101Z,6944.00
2018-07-09T12:03:59.259Z,7228.00
2018-07-09T12:04:59.420Z,7436.00
2018-07-09T12:05:59.583Z,7656.00
2018-07-09T12:06:59.742Z,7888.00
2018-07-09T12:07:59.903Z,8064.00
2018-07-09T12:09:00.066Z,8304.00
2018-07-09T12:10:00.224Z,8520.00
2018-07-09T12:11:00.386Z,8724.00
2018-07-09T12:12:00.546Z,8820.00
2018-07-09T12:13:00.710Z,8900.00
2018-07-09T12:14:00.867Z,8988.00
2018-07-09T12:15:01.031Z,8864.00
2018-07-09T12:16:01.193Z,8760.00
2018-07-09T12:17:01.358Z,8660.00
2018-07-09T12:18:01.516Z,8464.00
2018-07-09T12:19:01.678Z,8540.00
2018-07-09T12:20:01.841Z,8680.00
2018-07-09T12:21:02.002Z,8852.00
2018-07-09T12:22:02.165Z,8948.00
2018-07-09T12:23:02.329Z,9084.00
2018-07-09T12:24:02.490Z,9192.00
2018-07-09T12:25:02.654Z,9340.00